EEKE Airport Information

Runway Information
Runway 05 Length 2621 ft width 98 ft
Elevation 11 ft Threshold 0 ft Heading 59
Runway 23 Length 2621 ft Width 98 ft
Elevation 5 ft Threshold 0 ft Heading 239
Runway 17 Length 4980 ft width 98 ft
Elevation 14 ft Threshold 0 ft Heading 180
Runway 35 Length 4980 ft Width 98 ft
Elevation 8 ft Threshold 0 ft Heading 360
Airport Frequencies
Type TWR Name TWR Frequency 118.05 MHZ
Airport Navaids
Type VOR-DME Name Kuressaare Frequency 112400 KHZ
Type NDB Name Kuressaare Frequency 350 KHZ
Airport Weather Information & NOTAM
ADDS - METARS form results

(1602 UTC 14 June 2021)
Data provider http://aviationweather.gov/metar/data/
 
METAR text: EEKE 141550Z 18014KT CAVOK 18/10 Q1015
Conditions at: EEKE (KURESSAARE , EE) observed 1550 UTC 14 June 2021
Temperature: 18.0°C (64°F)
Dewpoint: 10.0°C (50°F) [RH = 59%]
Pressure (altimeter): 29.97 inches Hg (1015.0 mb)
Winds: from the S (180 degrees) at 16 MPH (14 knots; 7.2 m/s)
Visibility: 6 or more miles (10+ km)
Ceiling: ceiling and visibility are OK
Clouds: unknown
Weather: no significant weather observed at this time

METAR text: EEKE 141520Z 20012KT 170V230 CAVOK 19/09 Q1016
Conditions at: EEKE (KURESSAARE , EE) observed 1520 UTC 14 June 2021
Temperature: 19.0°C (66°F)
Dewpoint: 9.0°C (48°F) [RH = 52%]
Pressure (altimeter): 30.00 inches Hg (1016.0 mb)
Winds: from the SSW (200 degrees) at 14 MPH (12 knots; 6.2 m/s)
Visibility: 6 or more miles (10+ km)
Ceiling: ceiling and visibility are OK
Clouds: unknown
Weather: no significant weather observed at this time

Forecast for: EEKE (KURESSAARE , EE)
Text: TAF EEKE 141400Z 1415/1421 22012KT CAVOK
Forecast period: 1500 to 2100 UTC 14 June 2021
Forecast type: FROM: standard forecast or significant change
Winds: from the SW (220 degrees) at 14 MPH (12 knots; 6.2 m/s)
Visibility: 6 or more miles (10+ km)
Ceiling: unknown
Clouds: missing
Weather: NSW  (no significant weather)
Text: PROB30
Forecast period: 1500 to 2100 UTC 14 June 2021
Forecast type: TEMPORARY: The following changes expected for less than half the time period
Winds: from the SSW (210 degrees) at 21 MPH (18 knots; 9.3 m/s)
gusting to 34 MPH (30 knots; 15.4 m/s)
Visibility: missing
Ceiling: unknown
Clouds: missing
Weather: no significant weather forecast for this period